createdAt,value
2022-11-17T00:04:32.239Z,2.40
2022-11-17T00:09:39.427Z,2.20
2022-11-17T00:14:46.631Z,2.10
2022-11-17T00:25:17.557Z,2.70
2022-11-17T00:30:44.064Z,1.60
2022-11-17T00:35:56.416Z,1.90
2022-11-17T00:41:03.687Z,2.40
2022-11-17T00:51:16.655Z,2.50
2022-11-17T00:56:23.958Z,1.70
2022-11-17T01:06:41.117Z,2.40
2022-11-17T01:11:48.786Z,2.40
2022-11-17T01:16:56.658Z,2.10
2022-11-17T01:22:04.265Z,1.80
2022-11-17T01:27:11.349Z,2.10
2022-11-17T01:37:23.926Z,2.10
2022-11-17T01:47:44.250Z,1.90
2022-11-17T01:52:53.159Z,2.50
2022-11-17T01:58:04.167Z,2.00
2022-11-17T02:03:12.185Z,1.90
2022-11-17T02:08:22.255Z,1.90
2022-11-17T02:13:29.917Z,1.70
2022-11-17T02:18:36.866Z,2.00
2022-11-17T02:24:01.584Z,1.90
2022-11-17T02:29:14.676Z,1.30
2022-11-17T02:34:29.822Z,2.00
2022-11-17T02:39:44.774Z,1.60
2022-11-17T02:44:58.122Z,1.10
2022-11-17T02:50:10.602Z,2.00
2022-11-17T02:55:17.835Z,1.60
2022-11-17T03:00:25.783Z,1.60
2022-11-17T03:05:40.460Z,1.30
2022-11-17T03:10:58.502Z,1.80
2022-11-17T03:16:14.293Z,1.70
2022-11-17T03:21:28.249Z,1.60
2022-11-17T03:26:39.442Z,1.70
2022-11-17T03:31:49.937Z,1.50
2022-11-17T03:37:02.346Z,1.20
2022-11-17T03:42:16.292Z,1.70
2022-11-17T03:47:26.517Z,1.50
2022-11-17T03:52:35.174Z,1.40
2022-11-17T03:57:49.323Z,1.40
2022-11-17T04:02:59.941Z,1.60
2022-11-17T04:08:07.508Z,0.80
2022-11-17T04:13:35.355Z,1.60
2022-11-17T04:18:43.157Z,1.50
2022-11-17T04:23:50.675Z,1.70
2022-11-17T04:28:58.366Z,1.60
2022-11-17T04:34:08.149Z,1.40
2022-11-17T04:39:16.950Z,1.40
2022-11-17T04:44:26.684Z,1.80
2022-11-17T04:49:34.815Z,1.80
2022-11-17T04:54:42.040Z,1.30
2022-11-17T05:04:58.415Z,1.20
2022-11-17T05:10:06.348Z,1.70
2022-11-17T05:15:33.397Z,1.50
2022-11-17T05:20:42.712Z,1.70
2022-11-17T05:25:49.671Z,1.80
2022-11-17T05:30:56.707Z,1.80
2022-11-17T05:36:03.709Z,1.40
2022-11-17T05:41:10.957Z,1.80
2022-11-17T05:46:18.411Z,1.50
2022-11-17T05:51:26.788Z,1.60
2022-11-17T05:56:41.306Z,1.70
2022-11-17T06:01:52.437Z,1.60
2022-11-17T06:07:00.409Z,1.30
2022-11-17T06:12:08.648Z,1.20
2022-11-17T06:17:22.844Z,1.40
2022-11-17T06:22:31.453Z,1.30
2022-11-17T06:27:40.654Z,1.80
2022-11-17T06:32:50.441Z,1.90
2022-11-17T06:37:57.495Z,1.60
2022-11-17T06:43:10.780Z,2.30
2022-11-17T06:48:25.461Z,2.00
2022-11-17T06:53:33.202Z,1.80
2022-11-17T06:58:41.965Z,1.80
2022-11-17T07:03:48.911Z,1.70
2022-11-17T07:14:01.815Z,2.30
2022-11-17T07:19:10.092Z,1.90
2022-11-17T07:24:17.100Z,2.50
2022-11-17T07:29:24.264Z,2.40
2022-11-17T07:34:31.497Z,1.50
2022-11-17T07:39:38.592Z,1.90
2022-11-17T07:49:51.449Z,1.40
2022-11-17T07:54:58.646Z,1.50
2022-11-17T08:05:12.867Z,2.10
2022-11-17T08:10:20.597Z,2.10
2022-11-17T08:15:28.166Z,1.90
2022-11-17T08:20:35.283Z,2.10
2022-11-17T08:25:42.192Z,1.80
2022-11-17T08:30:49.409Z,2.00
2022-11-17T08:35:59.575Z,2.00
2022-11-17T08:41:09.334Z,2.80
2022-11-17T08:46:16.684Z,3.10
2022-11-17T08:51:25.329Z,1.30
2022-11-17T08:56:32.722Z,2.50
2022-11-17T09:01:40.148Z,1.90
2022-11-17T09:06:47.331Z,2.30
2022-11-17T09:11:56.083Z,3.30
2022-11-17T09:17:03.868Z,2.60
2022-11-17T09:22:11.014Z,2.40
2022-11-17T09:32:23.842Z,2.40
2022-11-17T09:42:41.218Z,1.70
2022-11-17T09:48:06.971Z,2.70
2022-11-17T09:53:27.061Z,2.50
2022-11-17T09:58:41.056Z,2.60
2022-11-17T10:03:50.856Z,2.80
2022-11-17T10:09:02.980Z,2.30
2022-11-17T10:14:17.279Z,2.30
2022-11-17T10:19:26.560Z,5.60
2022-11-17T10:24:38.830Z,2.60
2022-11-17T10:29:59.575Z,2.90
2022-11-17T10:35:19.789Z,2.20
2022-11-17T10:40:28.588Z,2.20
2022-11-17T10:45:36.481Z,2.60
2022-11-17T10:50:54.783Z,2.80
2022-11-17T10:56:05.834Z,2.50
2022-11-17T11:01:13.513Z,2.70
2022-11-17T11:06:29.860Z,2.20
2022-11-17T11:11:44.245Z,3.10
2022-11-17T11:16:52.855Z,3.10
2022-11-17T11:22:25.047Z,2.90
2022-11-17T11:27:48.063Z,3.10
2022-11-17T11:33:07.891Z,2.80
2022-11-17T11:38:40.031Z,3.20
2022-11-17T11:43:58.762Z,2.40
2022-11-17T11:49:15.437Z,3.20
2022-11-17T11:54:36.279Z,2.70
2022-11-17T11:59:57.176Z,1.70
2022-11-17T12:05:20.610Z,3.30
2022-11-17T12:10:33.187Z,2.90
2022-11-17T12:15:40.685Z,3.10
2022-11-17T12:21:05.917Z,2.90
2022-11-17T12:26:27.501Z,3.70
2022-11-17T12:31:48.923Z,3.90
2022-11-17T12:37:26.420Z,3.70
2022-11-17T12:42:34.959Z,3.30
2022-11-17T12:47:59.140Z,3.30
2022-11-17T12:53:32.498Z,3.20
2022-11-17T12:58:54.570Z,3.30
2022-11-17T13:04:09.004Z,3.40
2022-11-17T13:09:16.268Z,3.00
2022-11-17T13:14:23.809Z,3.30
2022-11-17T13:24:44.088Z,3.20
2022-11-17T13:29:51.443Z,4.00
2022-11-17T13:35:00.806Z,4.10
2022-11-17T13:40:22.882Z,3.70
2022-11-17T13:45:30.154Z,4.30
2022-11-17T13:50:40.148Z,3.30
2022-11-17T13:55:48.485Z,1.70
2022-11-17T14:00:58.285Z,4.40
2022-11-17T14:06:07.091Z,4.80
2022-11-17T14:11:22.553Z,3.00
2022-11-17T14:16:34.241Z,4.00
2022-11-17T14:22:01.120Z,3.90
2022-11-17T14:27:34.985Z,4.30
2022-11-17T14:32:42.212Z,3.10
2022-11-17T14:37:49.594Z,4.20
2022-11-17T14:42:56.546Z,4.10
2022-11-17T14:48:04.335Z,2.80
2022-11-17T14:53:11.368Z,4.00
2022-11-17T14:58:18.944Z,3.90
2022-11-17T15:03:26.407Z,4.90
2022-11-17T15:08:33.598Z,5.20
2022-11-17T15:18:49.472Z,3.80
2022-11-17T15:23:56.664Z,4.00
2022-11-17T15:34:13.345Z,4.70
2022-11-17T15:39:22.777Z,5.10
2022-11-17T15:44:30.394Z,5.70
2022-11-17T15:49:37.599Z,5.00
2022-11-17T15:54:44.789Z,5.30
2022-11-17T16:04:58.038Z,4.30
2022-11-17T16:10:05.565Z,3.40
2022-11-17T16:15:13.601Z,3.20
2022-11-17T16:20:21.609Z,4.00
2022-11-17T16:25:28.906Z,5.20
2022-11-17T16:30:37.026Z,6.50
2022-11-17T16:35:46.421Z,4.70
2022-11-17T16:40:53.850Z,5.30
2022-11-17T16:46:01.093Z,3.80
2022-11-17T16:56:16.303Z,4.50
2022-11-17T17:01:25.355Z,5.30
2022-11-17T17:06:33.099Z,4.80
2022-11-17T17:11:40.584Z,6.20
2022-11-17T17:16:47.839Z,6.50
2022-11-17T17:21:55.310Z,5.40
2022-11-17T17:27:02.590Z,7.10
2022-11-17T17:32:10.197Z,5.90
2022-11-17T17:37:18.274Z,5.40
2022-11-17T17:42:25.562Z,6.10
2022-11-17T17:52:37.952Z,7.40
2022-11-17T17:57:44.953Z,6.70
2022-11-17T18:02:52.092Z,7.00
2022-11-17T18:13:09.387Z,5.50
2022-11-17T18:18:17.847Z,8.30
2022-11-17T18:23:25.344Z,8.90
2022-11-17T18:28:32.964Z,7.20
2022-11-17T18:33:40.974Z,8.10
2022-11-17T18:38:48.240Z,8.70
2022-11-17T18:43:56.066Z,6.40
2022-11-17T18:49:03.421Z,8.60
2022-11-17T18:54:12.137Z,9.10
2022-11-17T18:59:19.669Z,8.70
2022-11-17T19:04:27.231Z,7.70
2022-11-17T19:09:34.453Z,8.10
2022-11-17T19:14:41.546Z,7.20
2022-11-17T19:24:54.505Z,7.50
2022-11-17T19:30:01.471Z,7.30
2022-11-17T19:35:15.720Z,9.20
2022-11-17T19:40:25.978Z,7.40
2022-11-17T19:45:33.129Z,8.20
2022-11-17T19:50:40.037Z,9.30
2022-11-17T19:55:47.024Z,5.50
2022-11-17T20:06:03.827Z,8.70
2022-11-17T20:11:12.944Z,9.00
2022-11-17T20:16:22.129Z,7.80
2022-11-17T20:21:30.911Z,9.20
2022-11-17T20:26:40.894Z,8.90
2022-11-17T20:31:48.078Z,7.80
2022-11-17T20:36:55.587Z,7.50
2022-11-17T20:42:02.572Z,9.30
2022-11-17T20:47:09.603Z,10.40
2022-11-17T20:52:16.770Z,11.70
2022-11-17T21:02:29.642Z,8.30
2022-11-17T21:12:42.393Z,8.60
2022-11-17T21:18:07.249Z,8.60
2022-11-17T21:23:14.394Z,8.80
2022-11-17T21:28:22.603Z,9.00
2022-11-17T21:33:29.965Z,9.10
2022-11-17T21:38:37.236Z,8.90
2022-11-17T21:43:46.050Z,6.70
2022-11-17T21:48:54.356Z,8.10
2022-11-17T21:54:03.756Z,7.40
2022-11-17T21:59:14.368Z,8.10
2022-11-17T22:04:22.614Z,8.90
2022-11-17T22:09:29.855Z,8.60
2022-11-17T22:19:42.410Z,6.40
2022-11-17T22:24:50.052Z,8.10
2022-11-17T22:29:57.144Z,5.90
2022-11-17T22:35:04.109Z,8.10
2022-11-17T22:40:12.538Z,9.40
2022-11-17T22:45:19.634Z,8.60
2022-11-17T22:55:34.140Z,7.20
2022-11-17T23:00:41.955Z,7.50
2022-11-17T23:11:29.521Z,8.00
2022-11-17T23:16:27.532Z,8.20
2022-11-17T23:26:40.779Z,7.40
2022-11-17T23:31:47.966Z,7.40
2022-11-17T23:36:59.505Z,6.30
2022-11-17T23:42:09.684Z,7.70
2022-11-17T23:52:22.113Z,8.10
2022-11-17T23:57:29.111Z,7.50
